Startpagina
METAR-TAF:

METAR-TAF

Vliegvelden :

Tsjita, Rusland

breedte: 52-05N, lengte: 113-29E, hoogte: 685 m

Actueel weer

Dit bericht is 34 minuten geleden gemaakt, om 06:00 UTC
Weinig wind
Temperatuur -13°C
Vochtigheid 72%
Druk 1017 hPa
Zicht 10 km of meer
Verspreide wolken op 4000 ft, Cumulonimbus.

METAR: UIAA 190600Z 00000MPS 9999 SCT040CB M13/M17 Q1017 R29/490150 NOSIG RMK QFE704/0939

Tijdstip: 15:34 (06:34 UTC)

Verwachting

Dit bericht is 1 uur en het 34 minuten geleden gemaakt, om 05:00 UTC
Verwachting geldig van 19 om 06 UTC tot 20 om 06 UTC
Wind 6 kt uit het westen met uitschieters tot 16 kt
Zicht 10 km of meer
Gebroken wolken op 3000 ft, Cumulonimbus.

TAF: UIAA 190500Z 1906/2006 27003G08MPS 9999 BKN030CB

Waarnemingen en weersverwachtingen van meer dan 4000 vliegvelden (METAR en TAF).

De beschikbare stations zijn de gele en rode punten op de kaart.

Ga met uw muis naar het station om de naam te zien.

Klik dan om waarnemingen en weersverwachtingen te zien.

kaart wijzigen: klik op de groene knoppen met een zwart kruis om in te zoomen, op de groene knop met een streepje om uit te zoomen of op de groene pijlen voor aangrenzende kaarten.


METAR-TAF: